createdAt,value
2023-05-18T00:01:14.776Z,97002.58
2023-05-18T00:03:42.882Z,97000.06
2023-05-18T00:06:10.962Z,97005.14
2023-05-18T00:08:38.835Z,97001.30
2023-05-18T00:11:06.863Z,97000.09
2023-05-18T00:13:34.730Z,97001.09
2023-05-18T00:16:02.552Z,96998.98
2023-05-18T00:18:31.106Z,97002.20
2023-05-18T00:21:00.755Z,97003.20
2023-05-18T00:23:33.245Z,97001.71
2023-05-18T00:26:01.991Z,97006.73
2023-05-18T00:28:29.928Z,97006.33
2023-05-18T00:30:58.107Z,97006.14
2023-05-18T00:33:26.067Z,97005.05
2023-05-18T00:35:54.054Z,97010.88
2023-05-18T00:38:22.031Z,97012.86
2023-05-18T00:40:50.099Z,97015.54
2023-05-18T00:43:18.096Z,97018.13
2023-05-18T00:45:46.182Z,97017.77
2023-05-18T00:48:14.092Z,97019.98
2023-05-18T00:50:41.904Z,97017.81
2023-05-18T00:53:12.820Z,97018.25
2023-05-18T00:55:41.068Z,97014.15
2023-05-18T00:58:09.232Z,97013.98
2023-05-18T01:00:37.858Z,97014.36
2023-05-18T01:03:06.387Z,97015.21
2023-05-18T01:05:34.453Z,97015.61
2023-05-18T01:08:03.380Z,97019.33
2023-05-18T01:10:33.265Z,97019.36
2023-05-18T01:13:05.851Z,97023.88
2023-05-18T01:15:38.181Z,97023.61
2023-05-18T01:18:21.991Z,97027.31
2023-05-18T01:20:57.701Z,97026.86
2023-05-18T01:23:52.585Z,97026.19
2023-05-18T01:26:24.958Z,97030.44
2023-05-18T01:28:54.474Z,97030.98
2023-05-18T01:31:23.226Z,97032.20
2023-05-18T01:33:51.482Z,97030.88
2023-05-18T01:36:19.674Z,97032.87
2023-05-18T01:38:48.030Z,97036.92
2023-05-18T01:41:24.213Z,97033.73
2023-05-18T01:43:56.035Z,97037.20
2023-05-18T01:46:43.693Z,97035.31
2023-05-18T01:49:17.017Z,97034.83
2023-05-18T01:51:46.380Z,97044.89
2023-05-18T01:54:16.805Z,97046.46
2023-05-18T01:56:45.589Z,97047.66
2023-05-18T01:59:15.118Z,97049.20
2023-05-18T02:01:43.165Z,97044.69
2023-05-18T02:04:11.410Z,97040.20
2023-05-18T02:06:39.731Z,97040.19
2023-05-18T02:09:09.668Z,97043.86
2023-05-18T02:11:37.655Z,97045.33
2023-05-18T02:14:05.830Z,97053.53
2023-05-18T02:16:33.828Z,97049.67
2023-05-18T02:19:01.969Z,97053.56
2023-05-18T02:21:31.568Z,97051.97
2023-05-18T02:23:59.499Z,97053.83
2023-05-18T02:26:27.573Z,97052.88
2023-05-18T02:28:55.466Z,97055.91
2023-05-18T02:31:23.318Z,97057.24
2023-05-18T02:33:51.454Z,97058.98
2023-05-18T02:36:22.669Z,97062.73
2023-05-18T02:38:50.760Z,97061.86
2023-05-18T02:41:18.615Z,97065.73
2023-05-18T02:43:46.654Z,97066.84
2023-05-18T02:46:14.673Z,97066.91
2023-05-18T02:48:45.962Z,97068.75
2023-05-18T02:51:14.054Z,97072.06
2023-05-18T02:53:44.446Z,97073.46
2023-05-18T02:56:13.952Z,97079.17
2023-05-18T02:58:50.622Z,97083.41
2023-05-18T03:01:27.068Z,97082.67
2023-05-18T03:03:57.928Z,97087.27
2023-05-18T03:06:27.088Z,97087.74
2023-05-18T03:08:56.555Z,97092.82
2023-05-18T03:11:29.943Z,97093.85
2023-05-18T03:13:58.035Z,97094.92
2023-05-18T03:16:28.887Z,97095.65
2023-05-18T03:18:59.275Z,97098.51
2023-05-18T03:21:36.179Z,97100.23
2023-05-18T03:24:04.674Z,97105.42
2023-05-18T03:26:33.773Z,97111.14
2023-05-18T03:29:02.221Z,97111.30
2023-05-18T03:31:30.476Z,97119.56
2023-05-18T03:33:59.952Z,97120.69
2023-05-18T03:36:30.535Z,97120.29
2023-05-18T03:38:59.206Z,97122.10
2023-05-18T03:41:28.501Z,97122.16
2023-05-18T03:43:56.666Z,97128.13
2023-05-18T03:46:25.267Z,97127.89
2023-05-18T03:48:54.538Z,97125.99
2023-05-18T03:51:29.166Z,97135.84
2023-05-18T03:53:57.559Z,97136.49
2023-05-18T03:56:26.150Z,97137.98
2023-05-18T03:58:54.059Z,97136.44
2023-05-18T04:01:24.024Z,97138.40
2023-05-18T04:03:56.745Z,97140.02
2023-05-18T04:06:27.174Z,97146.56
2023-05-18T04:08:55.407Z,97148.39
2023-05-18T04:11:24.609Z,97148.47
2023-05-18T04:13:52.816Z,97151.75
2023-05-18T04:16:22.095Z,97154.27
2023-05-18T04:18:50.556Z,97154.06
2023-05-18T04:21:19.448Z,97157.70
2023-05-18T04:23:47.549Z,97161.39
2023-05-18T04:26:20.204Z,97165.97
2023-05-18T04:28:48.433Z,97165.61
2023-05-18T04:31:18.105Z,97170.21
2023-05-18T04:33:47.448Z,97173.70
2023-05-18T04:36:21.384Z,97171.16
2023-05-18T04:38:50.997Z,97177.58
2023-05-18T04:41:22.658Z,97179.54
2023-05-18T04:43:50.687Z,97181.48
2023-05-18T04:46:19.051Z,97182.39
2023-05-18T04:48:50.133Z,97186.27
2023-05-18T04:51:21.599Z,97184.71
2023-05-18T04:53:50.210Z,97190.47
2023-05-18T04:56:18.726Z,97194.48
2023-05-18T04:58:48.385Z,97202.79
2023-05-18T05:01:17.180Z,97203.95
2023-05-18T05:03:45.769Z,97209.02
2023-05-18T05:06:13.843Z,97210.60
2023-05-18T05:08:41.902Z,97210.14
2023-05-18T05:11:09.810Z,97209.15
2023-05-18T05:13:37.658Z,97209.85
2023-05-18T05:16:06.070Z,97212.43
2023-05-18T05:18:34.109Z,97216.53
2023-05-18T05:21:02.189Z,97210.49
2023-05-18T05:23:30.276Z,97206.40
2023-05-18T05:25:58.341Z,97205.08
2023-05-18T05:28:29.579Z,97204.45
2023-05-18T05:30:57.782Z,97205.54
2023-05-18T05:33:26.149Z,97204.77
2023-05-18T05:35:54.540Z,97206.40
2023-05-18T05:38:22.652Z,97214.81
2023-05-18T05:40:50.706Z,97220.38
2023-05-18T05:43:18.545Z,97218.30
2023-05-18T05:45:47.592Z,97217.52
2023-05-18T05:48:16.045Z,97223.33
2023-05-18T05:50:43.989Z,97226.19
2023-05-18T05:53:11.976Z,97226.48
2023-05-18T05:55:43.612Z,97225.20
2023-05-18T05:58:14.212Z,97229.98
2023-05-18T06:00:46.790Z,97231.81
2023-05-18T06:03:15.844Z,97230.50
2023-05-18T06:05:46.338Z,97225.00
2023-05-18T06:08:17.329Z,97227.67
2023-05-18T06:10:46.245Z,97229.66
2023-05-18T06:13:14.501Z,97231.64
2023-05-18T06:15:47.900Z,97234.44
2023-05-18T06:18:16.182Z,97236.48
2023-05-18T06:20:45.660Z,97236.59
2023-05-18T06:23:15.812Z,97235.80
2023-05-18T06:26:13.047Z,97237.40
2023-05-18T06:28:44.049Z,97238.65
2023-05-18T06:31:34.879Z,97244.58
2023-05-18T06:34:15.600Z,97251.17
2023-05-18T06:36:43.834Z,97261.02
2023-05-18T06:39:11.754Z,97261.44
2023-05-18T06:41:39.982Z,97261.88
2023-05-18T06:44:07.902Z,97260.05
2023-05-18T06:46:40.331Z,97261.77
2023-05-18T06:49:21.622Z,97261.27
2023-05-18T06:51:49.577Z,97264.90
2023-05-18T06:54:17.805Z,97260.73
2023-05-18T06:56:46.470Z,97261.96
2023-05-18T06:59:14.349Z,97269.39
2023-05-18T07:01:42.616Z,97271.91
2023-05-18T07:04:11.340Z,97281.48
2023-05-18T07:06:39.263Z,97290.88
2023-05-18T07:09:08.876Z,97294.73
2023-05-18T07:11:36.869Z,97298.95
2023-05-18T07:14:04.808Z,97300.89
2023-05-18T07:16:32.752Z,97303.83
2023-05-18T07:19:00.853Z,97309.29
2023-05-18T07:21:28.808Z,97312.00
2023-05-18T07:23:56.712Z,97313.81
2023-05-18T07:26:24.560Z,97313.73
2023-05-18T07:28:52.322Z,97314.86
2023-05-18T07:31:21.753Z,97309.97
2023-05-18T07:33:50.312Z,97303.63
2023-05-18T07:36:18.370Z,97296.02
2023-05-18T07:38:46.636Z,97292.30
2023-05-18T07:41:14.478Z,97290.24
2023-05-18T07:43:42.440Z,97286.77
2023-05-18T07:46:10.308Z,97286.46
2023-05-18T07:48:40.519Z,97286.80
2023-05-18T07:51:09.372Z,97279.60
2023-05-18T07:53:38.113Z,97269.88
2023-05-18T07:56:07.575Z,97270.19
2023-05-18T07:58:36.768Z,97268.95
2023-05-18T08:01:04.722Z,97279.38
2023-05-18T08:03:33.184Z,97288.90
2023-05-18T08:06:01.230Z,97293.39
2023-05-18T08:08:29.395Z,97292.48
2023-05-18T08:10:57.692Z,97292.46
2023-05-18T08:13:25.872Z,97293.96
2023-05-18T08:16:09.776Z,97299.86
2023-05-18T08:18:40.187Z,97299.98
2023-05-18T08:21:10.060Z,97304.15
2023-05-18T08:23:38.866Z,97305.94
2023-05-18T08:26:10.056Z,97311.08
2023-05-18T08:28:39.066Z,97312.92
2023-05-18T08:31:07.573Z,97318.04
2023-05-18T08:33:35.522Z,97317.13
2023-05-18T08:36:03.565Z,97310.01
2023-05-18T08:38:32.279Z,97311.77
2023-05-18T08:41:26.701Z,97311.45
2023-05-18T08:44:04.992Z,97310.27
2023-05-18T08:46:34.253Z,97312.22
2023-05-18T08:49:03.605Z,97315.54
2023-05-18T08:51:34.118Z,97319.42
2023-05-18T08:54:02.945Z,97322.76
2023-05-18T08:56:31.624Z,97324.30
2023-05-18T08:58:59.999Z,97319.53
2023-05-18T09:01:31.348Z,97312.33
2023-05-18T09:04:00.846Z,97316.35
2023-05-18T09:06:29.051Z,97321.75
2023-05-18T09:09:04.475Z,97316.21
2023-05-18T09:11:33.175Z,97314.77
2023-05-18T09:14:01.493Z,97313.98
2023-05-18T09:16:30.535Z,97313.73
2023-05-18T09:18:58.537Z,97313.13
2023-05-18T09:21:26.474Z,97314.21
2023-05-18T09:23:54.670Z,97310.98
2023-05-18T09:26:22.960Z,97308.38
2023-05-18T09:28:54.387Z,97308.34
2023-05-18T09:31:24.954Z,97307.00
2023-05-18T09:33:53.238Z,97307.60
2023-05-18T09:36:26.526Z,97307.89
2023-05-18T09:38:54.642Z,97306.73
2023-05-18T09:41:26.086Z,97307.15
2023-05-18T09:43:54.667Z,97304.23
2023-05-18T09:46:22.543Z,97302.53
2023-05-18T09:48:51.607Z,97303.06
2023-05-18T09:51:21.149Z,97301.86
2023-05-18T09:53:49.912Z,97304.12
2023-05-18T09:56:18.070Z,97304.76
2023-05-18T09:58:46.168Z,97304.06
2023-05-18T10:01:14.150Z,97308.23
2023-05-18T10:03:42.365Z,97307.44
2023-05-18T10:06:13.479Z,97311.56
2023-05-18T10:08:41.770Z,97315.31
2023-05-18T10:11:09.826Z,97318.54
2023-05-18T10:13:38.318Z,97317.77
2023-05-18T10:16:07.953Z,97321.23
2023-05-18T10:18:37.057Z,97320.45
2023-05-18T10:21:06.231Z,97317.30
2023-05-18T10:23:35.654Z,97317.71
2023-05-18T10:26:07.950Z,97318.70
2023-05-18T10:28:41.946Z,97311.80
2023-05-18T10:31:10.078Z,97311.89
2023-05-18T10:33:38.889Z,97313.77
2023-05-18T10:36:07.707Z,97313.92
2023-05-18T10:38:36.918Z,97315.58
2023-05-18T10:41:05.904Z,97310.15
2023-05-18T10:43:34.323Z,97305.60
2023-05-18T10:46:02.442Z,97305.36
2023-05-18T10:48:31.613Z,97302.81
2023-05-18T10:50:59.732Z,97298.73
2023-05-18T10:53:30.087Z,97294.20
2023-05-18T10:55:58.055Z,97292.70
2023-05-18T10:58:27.945Z,97294.37
2023-05-18T11:00:57.439Z,97294.21
2023-05-18T11:03:27.117Z,97292.72
2023-05-18T11:06:06.985Z,97296.00
2023-05-18T11:08:42.772Z,97290.11
2023-05-18T11:11:10.647Z,97292.48
2023-05-18T11:13:43.655Z,97291.56
2023-05-18T11:16:11.646Z,97290.22
2023-05-18T11:18:47.113Z,97291.68
2023-05-18T11:21:18.813Z,97289.83
2023-05-18T11:24:05.441Z,97291.84
2023-05-18T11:26:38.101Z,97296.98
2023-05-18T11:29:19.404Z,97295.48
2023-05-18T11:31:51.854Z,97295.08
2023-05-18T11:34:39.804Z,97294.91
2023-05-18T11:37:10.434Z,97291.11
2023-05-18T11:39:47.883Z,97294.75
2023-05-18T11:42:23.518Z,97289.58
2023-05-18T11:44:52.549Z,97293.02
2023-05-18T11:47:20.631Z,97294.04
2023-05-18T11:49:49.179Z,97290.06
2023-05-18T11:52:19.121Z,97289.34
2023-05-18T11:54:54.279Z,97289.17
2023-05-18T11:57:34.757Z,97291.59
2023-05-18T12:00:09.692Z,97289.30
2023-05-18T12:02:45.603Z,97288.74
2023-05-18T12:05:14.388Z,97292.23
2023-05-18T12:07:42.854Z,97287.60
2023-05-18T12:10:17.782Z,97288.50
2023-05-18T12:12:48.060Z,97290.34
2023-05-18T12:15:17.481Z,97289.30
2023-05-18T12:17:47.177Z,97282.71
2023-05-18T12:20:16.752Z,97278.90
2023-05-18T12:22:46.132Z,97281.40
2023-05-18T12:25:13.961Z,97279.16
2023-05-18T12:27:43.921Z,97278.11
2023-05-18T12:30:19.068Z,97282.42
2023-05-18T12:32:54.804Z,97285.41
2023-05-18T12:35:23.798Z,97289.65
2023-05-18T12:37:52.256Z,97285.73
2023-05-18T12:40:20.518Z,97288.17
2023-05-18T12:42:55.289Z,97280.17
2023-05-18T12:45:25.800Z,97282.23
2023-05-18T12:47:55.433Z,97281.44
2023-05-18T12:50:27.718Z,97283.23
2023-05-18T12:52:59.361Z,97286.58
2023-05-18T12:55:28.388Z,97286.02
2023-05-18T12:58:07.656Z,97283.36
2023-05-18T13:00:36.485Z,97288.14
2023-05-18T13:03:10.266Z,97286.64
2023-05-18T13:05:42.046Z,97284.63
2023-05-18T13:08:13.913Z,97286.36
2023-05-18T13:10:43.220Z,97286.30
2023-05-18T13:13:15.695Z,97285.54
2023-05-18T13:15:44.193Z,97285.06
2023-05-18T13:18:12.641Z,97283.80
2023-05-18T13:20:42.991Z,97281.48
2023-05-18T13:23:10.960Z,97287.45
2023-05-18T13:25:39.553Z,97289.11
2023-05-18T13:28:07.697Z,97291.27
2023-05-18T13:30:35.598Z,97284.91
2023-05-18T13:33:03.833Z,97291.14
2023-05-18T13:35:31.938Z,97294.64
2023-05-18T13:38:00.336Z,97298.98
2023-05-18T13:40:28.441Z,97293.39
2023-05-18T13:42:56.327Z,97293.40
2023-05-18T13:45:24.469Z,97286.58
2023-05-18T13:47:53.759Z,97288.45
2023-05-18T13:50:23.140Z,97287.18
2023-05-18T13:52:51.223Z,97289.38
2023-05-18T13:55:19.297Z,97293.34
2023-05-18T13:57:47.279Z,97293.36
2023-05-18T14:00:17.091Z,97289.95
2023-05-18T14:02:45.109Z,97287.26
2023-05-18T14:05:13.596Z,97293.84
2023-05-18T14:07:42.306Z,97288.55
2023-05-18T14:10:10.982Z,97287.88
2023-05-18T14:12:39.367Z,97291.72
2023-05-18T14:15:07.583Z,97288.08
2023-05-18T14:17:36.127Z,97288.15
2023-05-18T14:20:07.359Z,97287.77
2023-05-18T14:22:35.236Z,97286.23
2023-05-18T14:25:03.160Z,97285.51
2023-05-18T14:27:31.431Z,97289.38
2023-05-18T14:29:59.325Z,97290.73
2023-05-18T14:32:27.255Z,97294.00
2023-05-18T14:34:58.113Z,97295.70
2023-05-18T14:37:26.321Z,97295.25
2023-05-18T14:39:54.525Z,97298.51
2023-05-18T14:42:22.612Z,97304.11
2023-05-18T14:44:50.623Z,97305.63
2023-05-18T14:47:18.478Z,97308.30
2023-05-18T14:49:46.288Z,97311.27
2023-05-18T14:52:16.562Z,97309.59
2023-05-18T14:54:44.536Z,97310.47
2023-05-18T14:57:12.932Z,97308.92
2023-05-18T14:59:40.853Z,97306.33
2023-05-18T15:02:09.229Z,97309.49
2023-05-18T15:04:37.300Z,97312.58
2023-05-18T15:07:06.452Z,97316.89
2023-05-18T15:09:34.231Z,97316.89
2023-05-18T15:12:02.500Z,97312.34
2023-05-18T15:14:30.568Z,97312.70
2023-05-18T15:16:58.901Z,97315.70
2023-05-18T15:19:27.222Z,97322.14
2023-05-18T15:21:55.036Z,97321.38
2023-05-18T15:24:22.886Z,97325.73
2023-05-18T15:26:51.393Z,97323.00
2023-05-18T15:29:19.252Z,97324.54
2023-05-18T15:31:50.965Z,97324.91
2023-05-18T15:34:19.382Z,97323.88
2023-05-18T15:36:47.359Z,97324.40
2023-05-18T15:39:15.308Z,97325.29
2023-05-18T15:41:43.082Z,97323.10
2023-05-18T15:44:11.099Z,97323.98
2023-05-18T15:46:38.927Z,97325.63
2023-05-18T15:49:06.789Z,97334.55
2023-05-18T15:51:34.615Z,97329.50
2023-05-18T15:54:02.591Z,97335.05
2023-05-18T15:56:30.445Z,97334.87
2023-05-18T15:58:58.348Z,97335.70
2023-05-18T16:01:26.218Z,97335.89
2023-05-18T16:03:54.075Z,97335.56
2023-05-18T16:06:22.136Z,97336.51
2023-05-18T16:08:50.107Z,97335.98
2023-05-18T16:11:18.075Z,97337.25
2023-05-18T16:13:47.791Z,97337.36
2023-05-18T16:16:16.330Z,97336.72
2023-05-18T16:18:44.276Z,97340.02
2023-05-18T16:21:12.326Z,97339.52
2023-05-18T16:23:41.742Z,97340.27
2023-05-18T16:26:10.234Z,97348.11
2023-05-18T16:28:38.095Z,97353.13
2023-05-18T16:31:08.174Z,97351.14
2023-05-18T16:33:36.134Z,97359.09
2023-05-18T16:36:05.191Z,97358.16
2023-05-18T16:38:37.585Z,97362.79
2023-05-18T16:41:05.902Z,97360.13
2023-05-18T16:43:35.482Z,97362.71
2023-05-18T16:46:03.606Z,97365.21
2023-05-18T16:48:31.621Z,97368.64
2023-05-18T16:50:59.361Z,97369.10
2023-05-18T16:53:27.179Z,97365.29
2023-05-18T16:55:55.326Z,97362.17
2023-05-18T16:58:23.171Z,97361.29
2023-05-18T17:00:51.285Z,97360.95
2023-05-18T17:03:19.777Z,97364.02
2023-05-18T17:05:48.350Z,97365.59
2023-05-18T17:08:16.143Z,97370.66
2023-05-18T17:10:43.965Z,97372.40
2023-05-18T17:13:11.802Z,97379.18
2023-05-18T17:15:39.630Z,97383.17
2023-05-18T17:18:07.728Z,97380.42
2023-05-18T17:20:35.654Z,97380.34
2023-05-18T17:23:04.589Z,97386.79
2023-05-18T17:25:32.586Z,97390.62
2023-05-18T17:28:00.656Z,97393.05
2023-05-18T17:30:28.529Z,97394.50
2023-05-18T17:32:56.739Z,97400.42
2023-05-18T17:35:25.206Z,97401.75
2023-05-18T17:37:54.694Z,97399.17
2023-05-18T17:40:22.651Z,97395.94
2023-05-18T17:42:50.611Z,97399.11
2023-05-18T17:45:18.807Z,97399.77
2023-05-18T17:47:46.699Z,97400.36
2023-05-18T17:50:14.753Z,97400.52
2023-05-18T17:52:42.830Z,97404.64
2023-05-18T17:55:10.741Z,97404.75
2023-05-18T17:57:45.404Z,97410.34
2023-05-18T18:00:13.763Z,97409.86
2023-05-18T18:02:42.436Z,97415.77
2023-05-18T18:05:10.898Z,97413.20
2023-05-18T18:07:39.288Z,97412.49
2023-05-18T18:10:07.337Z,97412.66
2023-05-18T18:12:35.134Z,97420.85
2023-05-18T18:15:03.214Z,97427.08
2023-05-18T18:17:33.169Z,97432.63
2023-05-18T18:20:01.082Z,97435.02
2023-05-18T18:22:28.994Z,97436.29
2023-05-18T18:24:56.846Z,97438.31
2023-05-18T18:27:24.684Z,97443.02
2023-05-18T18:29:53.002Z,97450.52
2023-05-18T18:32:20.830Z,97455.81
2023-05-18T18:34:48.605Z,97464.13
2023-05-18T18:37:17.329Z,97464.11
2023-05-18T18:39:45.294Z,97466.98
2023-05-18T18:42:13.172Z,97468.31
2023-05-18T18:44:41.270Z,97471.66
2023-05-18T18:47:09.143Z,97474.63
2023-05-18T18:49:37.046Z,97477.49
2023-05-18T18:52:05.693Z,97479.20
2023-05-18T18:54:33.553Z,97480.91
2023-05-18T18:57:02.146Z,97477.75
2023-05-18T18:59:30.023Z,97476.09
2023-05-18T19:01:58.208Z,97477.58
2023-05-18T19:04:26.111Z,97480.52
2023-05-18T19:06:55.264Z,97482.90
2023-05-18T19:09:23.082Z,97479.59
2023-05-18T19:11:51.044Z,97478.13
2023-05-18T19:14:18.992Z,97481.27
2023-05-18T19:16:47.066Z,97481.48
2023-05-18T19:19:15.220Z,97483.41
2023-05-18T19:21:44.441Z,97490.47
2023-05-18T19:24:12.725Z,97490.98
2023-05-18T19:26:40.712Z,97495.85
2023-05-18T19:29:08.578Z,97492.29
2023-05-18T19:31:38.081Z,97496.73
2023-05-18T19:34:06.161Z,97495.67
2023-05-18T19:36:34.010Z,97502.57
2023-05-18T19:39:01.822Z,97501.28
2023-05-18T19:41:29.759Z,97502.88
2023-05-18T19:43:57.744Z,97500.13
2023-05-18T19:46:25.639Z,97500.99
2023-05-18T19:48:56.292Z,97503.36
2023-05-18T19:51:24.473Z,97505.57
2023-05-18T19:53:52.252Z,97507.55
2023-05-18T19:56:21.912Z,97508.58
2023-05-18T19:58:49.751Z,97511.26
2023-05-18T20:01:18.862Z,97512.66
2023-05-18T20:03:48.075Z,97517.36
2023-05-18T20:06:16.254Z,97512.92
2023-05-18T20:08:44.681Z,97516.27
2023-05-18T20:11:12.762Z,97517.88
2023-05-18T20:13:43.058Z,97523.48
2023-05-18T20:16:10.903Z,97525.59
2023-05-18T20:18:40.258Z,97528.09
2023-05-18T20:21:08.735Z,97530.39
2023-05-18T20:23:36.790Z,97533.46
2023-05-18T20:26:06.013Z,97532.95
2023-05-18T20:28:33.926Z,97530.73
2023-05-18T20:31:01.878Z,97532.34
2023-05-18T20:33:30.431Z,97533.11
2023-05-18T20:35:59.960Z,97534.70
2023-05-18T20:38:28.243Z,97537.54
2023-05-18T20:40:58.173Z,97532.52
2023-05-18T20:43:26.036Z,97534.92
2023-05-18T20:45:54.016Z,97533.78
2023-05-18T20:48:26.914Z,97528.77
2023-05-18T20:50:55.070Z,97530.92
2023-05-18T20:53:23.145Z,97532.11
2023-05-18T20:55:51.036Z,97536.84
2023-05-18T20:58:19.192Z,97543.63
2023-05-18T21:00:48.087Z,97549.65
2023-05-18T21:03:18.459Z,97554.33
2023-05-18T21:05:49.593Z,97551.27
2023-05-18T21:08:17.638Z,97552.59
2023-05-18T21:10:45.696Z,97548.56
2023-05-18T21:13:13.700Z,97545.95
2023-05-18T21:15:41.701Z,97545.16
2023-05-18T21:18:10.189Z,97545.40
2023-05-18T21:20:38.292Z,97550.89
2023-05-18T21:23:06.172Z,97550.65
2023-05-18T21:25:34.012Z,97553.52
2023-05-18T21:28:02.250Z,97556.55
2023-05-18T21:30:31.598Z,97551.10
2023-05-18T21:32:59.838Z,97554.67
2023-05-18T21:35:28.025Z,97555.30
2023-05-18T21:37:55.799Z,97555.28
2023-05-18T21:40:23.740Z,97555.37
2023-05-18T21:42:51.510Z,97556.06
2023-05-18T21:45:21.976Z,97554.85
2023-05-18T21:47:50.941Z,97557.60
2023-05-18T21:50:19.164Z,97556.02
2023-05-18T21:52:46.955Z,97553.58
2023-05-18T21:55:14.807Z,97557.95
2023-05-18T21:57:42.804Z,97556.08
2023-05-18T22:00:14.144Z,97559.87
2023-05-18T22:02:41.909Z,97555.48
2023-05-18T22:05:10.065Z,97558.52
2023-05-18T22:07:37.946Z,97563.13
2023-05-18T22:10:06.515Z,97558.91
2023-05-18T22:12:34.479Z,97557.14
2023-05-18T22:15:02.401Z,97553.67
2023-05-18T22:17:30.225Z,97551.70
2023-05-18T22:19:58.098Z,97551.51
2023-05-18T22:22:30.419Z,97553.09
2023-05-18T22:24:58.617Z,97552.42
2023-05-18T22:27:26.837Z,97553.84
2023-05-18T22:29:54.869Z,97553.53
2023-05-18T22:32:22.865Z,97555.56
2023-05-18T22:34:51.045Z,97555.05
2023-05-18T22:37:19.090Z,97555.89
2023-05-18T22:39:47.110Z,97558.30
2023-05-18T22:42:15.076Z,97555.90
2023-05-18T22:44:43.085Z,97555.69
2023-05-18T22:47:11.643Z,97557.74
2023-05-18T22:49:41.361Z,97559.10
2023-05-18T22:52:10.457Z,97556.98
2023-05-18T22:54:38.430Z,97555.33
2023-05-18T22:57:06.481Z,97553.50
2023-05-18T22:59:35.335Z,97553.39
2023-05-18T23:02:06.343Z,97555.05
2023-05-18T23:04:35.712Z,97552.95
2023-05-18T23:07:04.266Z,97552.77
2023-05-18T23:09:32.248Z,97547.48
2023-05-18T23:12:01.359Z,97548.20
2023-05-18T23:14:31.333Z,97547.61
2023-05-18T23:16:59.970Z,97543.79
2023-05-18T23:19:27.978Z,97543.82
2023-05-18T23:21:56.628Z,97541.98
2023-05-18T23:24:24.401Z,97542.79
2023-05-18T23:26:52.262Z,97538.88
2023-05-18T23:29:20.237Z,97541.55
2023-05-18T23:31:48.106Z,97543.66
2023-05-18T23:34:16.358Z,97546.98
2023-05-18T23:36:45.188Z,97549.13
2023-05-18T23:39:13.261Z,97548.98
2023-05-18T23:41:42.125Z,97547.29
2023-05-18T23:44:10.207Z,97547.95
2023-05-18T23:46:38.415Z,97550.06
2023-05-18T23:49:07.082Z,97547.67
2023-05-18T23:51:36.417Z,97545.98
2023-05-18T23:54:07.419Z,97548.21
2023-05-18T23:56:36.114Z,97544.22
2023-05-18T23:59:04.391Z,97543.70
